createdAt,value
2019-01-13T00:00:24.324Z,99450.61
2019-01-13T00:02:56.301Z,99440.58
2019-01-13T00:05:27.821Z,99444.59
2019-01-13T00:07:59.510Z,99440.82
2019-01-13T00:10:31.310Z,99444.34
2019-01-13T00:13:02.894Z,99442.86
2019-01-13T00:15:34.389Z,99432.67
2019-01-13T00:18:06.057Z,99435.05
2019-01-13T00:20:37.773Z,99438.35
2019-01-13T00:23:08.475Z,99440.17
2019-01-13T00:25:40.292Z,99434.52
2019-01-13T00:28:11.884Z,99431.69
2019-01-13T00:30:43.766Z,99432.73
2019-01-13T00:33:15.369Z,99430.67
2019-01-13T00:35:47.296Z,99424.41
2019-01-13T00:38:18.862Z,99425.23
2019-01-13T00:40:50.414Z,99429.62
2019-01-13T00:43:22.298Z,99429.03
2019-01-13T00:45:53.885Z,99433.41
2019-01-13T00:48:25.733Z,99437.05
2019-01-13T00:50:56.432Z,99433.11
2019-01-13T00:53:28.066Z,99435.52
2019-01-13T00:55:59.777Z,99436.01
2019-01-13T00:58:30.487Z,99434.65
2019-01-13T01:01:02.301Z,99435.39
2019-01-13T01:03:33.829Z,99434.65
2019-01-13T01:06:05.895Z,99438.81
2019-01-13T01:08:37.345Z,99435.14
2019-01-13T01:11:09.071Z,99436.63
2019-01-13T01:13:40.782Z,99432.05
2019-01-13T01:16:12.252Z,99431.38
2019-01-13T01:18:43.846Z,99424.19
2019-01-13T01:21:15.620Z,99426.47
2019-01-13T01:23:47.638Z,99438.48
2019-01-13T01:26:19.385Z,99431.90
2019-01-13T01:28:51.588Z,99431.90
2019-01-13T01:31:23.316Z,99423.17
2019-01-13T01:33:54.862Z,99423.17
2019-01-13T01:36:26.381Z,99436.78
2019-01-13T01:38:57.985Z,99432.92
2019-01-13T01:41:29.758Z,99426.03
2019-01-13T01:44:00.483Z,99427.39
2019-01-13T01:46:32.525Z,99422.95
2019-01-13T01:49:04.462Z,99424.37
2019-01-13T01:51:36.309Z,99430.20
2019-01-13T01:54:08.390Z,99426.38
2019-01-13T01:56:40.044Z,99428.34
2019-01-13T01:59:11.742Z,99434.71
2019-01-13T02:01:42.467Z,99427.52
2019-01-13T02:04:14.356Z,99428.05
2019-01-13T02:06:46.051Z,99425.63
2019-01-13T02:09:17.760Z,99428.34
2019-01-13T02:11:48.483Z,99426.03
2019-01-13T02:14:20.309Z,99422.73
2019-01-13T02:16:51.869Z,99427.20
2019-01-13T02:19:23.369Z,99430.76
2019-01-13T02:21:55.048Z,99430.33
2019-01-13T02:24:26.853Z,99429.40
2019-01-13T02:26:58.627Z,99435.48
2019-01-13T02:29:30.661Z,99425.45
2019-01-13T02:32:02.406Z,99417.58
2019-01-13T02:34:34.067Z,99417.58
2019-01-13T02:37:05.774Z,99415.30
2019-01-13T02:39:37.373Z,99419.25
2019-01-13T02:42:09.065Z,99414.58
2019-01-13T02:44:40.744Z,99421.68
2019-01-13T02:47:11.442Z,99420.14
2019-01-13T02:49:43.061Z,99422.55
2019-01-13T02:52:14.899Z,99417.73
2019-01-13T02:54:46.770Z,99409.58
2019-01-13T02:57:18.536Z,99413.34
2019-01-13T02:59:50.746Z,99409.83
2019-01-13T03:02:21.639Z,99409.83
2019-01-13T03:04:53.388Z,99415.11
2019-01-13T03:07:24.519Z,99414.98
2019-01-13T03:09:56.309Z,99412.91
2019-01-13T03:12:27.863Z,99410.69
2019-01-13T03:14:59.390Z,99404.55
2019-01-13T03:17:31.031Z,99407.67
2019-01-13T03:20:03.326Z,99408.09
2019-01-13T03:22:34.837Z,99416.61
2019-01-13T03:25:09.324Z,99402.25
2019-01-13T03:27:40.846Z,99410.89
2019-01-13T03:30:17.951Z,99409.11
2019-01-13T03:32:49.851Z,99398.17
2019-01-13T03:35:21.771Z,99391.33
2019-01-13T03:37:53.375Z,99394.47
2019-01-13T03:40:26.793Z,99387.37
2019-01-13T03:42:58.751Z,99393.98
2019-01-13T03:45:31.172Z,99387.12
2019-01-13T03:48:02.869Z,99403.24
2019-01-13T03:50:34.860Z,99393.45
2019-01-13T03:53:06.734Z,99392.50
2019-01-13T03:55:37.487Z,99403.98
2019-01-13T03:58:11.120Z,99396.88
2019-01-13T04:00:42.752Z,99400.19
2019-01-13T04:03:13.460Z,99395.62
2019-01-13T04:05:45.610Z,99392.03
2019-01-13T04:08:17.356Z,99380.22
2019-01-13T04:10:49.051Z,99380.22
2019-01-13T04:13:20.791Z,99374.59
2019-01-13T04:16:04.467Z,99372.30
2019-01-13T04:18:36.630Z,99372.53
2019-01-13T04:21:08.713Z,99368.21
2019-01-13T04:23:39.458Z,99368.21
2019-01-13T04:26:11.058Z,99370.59
2019-01-13T04:28:42.785Z,99376.42
2019-01-13T04:31:13.497Z,99375.31
2019-01-13T04:33:45.345Z,99367.28
2019-01-13T04:36:17.077Z,99375.55
2019-01-13T04:38:48.787Z,99372.19
2019-01-13T04:41:19.463Z,99367.09
2019-01-13T04:43:51.312Z,99372.72
2019-01-13T04:46:22.838Z,99360.61
2019-01-13T04:48:54.624Z,99354.63
2019-01-13T04:51:26.384Z,99350.63
2019-01-13T04:53:58.040Z,99350.63
2019-01-13T04:56:29.749Z,99347.91
2019-01-13T04:59:00.483Z,99343.64
2019-01-13T05:03:41.580Z,99342.41
2019-01-13T05:06:13.309Z,99337.04
2019-01-13T05:08:44.859Z,99337.04
2019-01-13T05:11:16.625Z,99342.47
2019-01-13T05:13:48.390Z,99336.33
2019-01-13T05:16:20.049Z,99336.33
2019-01-13T05:18:51.815Z,99338.70
2019-01-13T05:21:23.433Z,99334.25
2019-01-13T05:23:55.074Z,99334.87
2019-01-13T05:26:26.809Z,99323.05
2019-01-13T05:28:58.751Z,99322.74
2019-01-13T05:31:29.466Z,99326.41
2019-01-13T05:34:01.306Z,99325.13
2019-01-13T05:36:32.829Z,99324.75
2019-01-13T05:39:05.756Z,99325.87
2019-01-13T05:41:37.379Z,99324.63
2019-01-13T05:44:09.342Z,99323.05
2019-01-13T05:46:41.073Z,99328.89
2019-01-13T05:49:12.798Z,99325.87
2019-01-13T05:51:43.504Z,99335.27
2019-01-13T05:54:15.305Z,99324.94
2019-01-13T05:56:46.850Z,99326.36
2019-01-13T05:59:18.613Z,99324.94
2019-01-13T06:01:50.761Z,99305.26
2019-01-13T06:04:21.464Z,99305.26
2019-01-13T06:06:53.269Z,99309.38
2019-01-13T06:09:25.399Z,99303.61
2019-01-13T06:11:57.080Z,99314.50
2019-01-13T06:14:28.782Z,99315.77
2019-01-13T06:16:59.498Z,99309.53
2019-01-13T06:19:31.314Z,99297.28
2019-01-13T06:22:02.837Z,99294.95
2019-01-13T06:24:35.321Z,99299.58
2019-01-13T06:27:06.868Z,99298.50
2019-01-13T06:29:38.445Z,99295.73
2019-01-13T06:32:10.052Z,99286.73
2019-01-13T06:34:41.799Z,99291.59
2019-01-13T06:37:13.788Z,99291.83
2019-01-13T06:39:44.953Z,99283.96
2019-01-13T06:42:17.078Z,99280.02
2019-01-13T06:44:49.050Z,99288.25
2019-01-13T06:47:20.877Z,99284.69
2019-01-13T06:49:52.442Z,99288.28
2019-01-13T06:52:24.309Z,99289.88
2019-01-13T06:54:55.890Z,99284.43
2019-01-13T06:57:27.653Z,99278.25
2019-01-13T06:59:59.389Z,99275.30
2019-01-13T07:02:31.321Z,99275.30
2019-01-13T07:07:45.828Z,99268.95
2019-01-13T07:10:17.621Z,99281.42
2019-01-13T07:12:49.375Z,99281.72
2019-01-13T07:15:21.766Z,99281.72
2019-01-13T07:17:52.468Z,99287.50
2019-01-13T07:20:24.741Z,99280.36
2019-01-13T07:22:55.488Z,99278.39
2019-01-13T07:25:27.313Z,99279.13
2019-01-13T07:27:58.874Z,99274.09
2019-01-13T07:30:30.762Z,99267.91
2019-01-13T07:33:03.269Z,99270.54
2019-01-13T07:35:35.313Z,99269.47
2019-01-13T07:38:06.962Z,99253.96
2019-01-13T07:40:38.749Z,99269.11
2019-01-13T07:43:11.305Z,99260.10
2019-01-13T07:45:42.858Z,99263.27
2019-01-13T07:48:14.366Z,99251.14
2019-01-13T07:50:46.070Z,99246.00
2019-01-13T07:53:17.786Z,99236.22
2019-01-13T07:55:48.493Z,99236.33
2019-01-13T07:58:20.591Z,99235.70
2019-01-13T08:00:52.317Z,99232.55
2019-01-13T08:03:24.326Z,99232.55
2019-01-13T08:05:56.047Z,99230.66
2019-01-13T08:08:27.900Z,99224.77
2019-01-13T08:10:59.770Z,99221.11
2019-01-13T08:13:30.488Z,99218.91
2019-01-13T08:16:02.323Z,99222.59
2019-01-13T08:18:33.878Z,99217.76
2019-01-13T08:21:06.284Z,99205.94
2019-01-13T08:23:37.836Z,99199.36
2019-01-13T08:26:09.597Z,99197.27
2019-01-13T08:28:41.309Z,99172.69
2019-01-13T08:31:12.897Z,99172.69
2019-01-13T08:33:44.427Z,99183.77
2019-01-13T08:36:16.307Z,99180.33
2019-01-13T08:38:47.833Z,99178.03
2019-01-13T08:41:19.581Z,99188.16
2019-01-13T08:43:51.382Z,99160.23
2019-01-13T08:46:23.067Z,99160.23
2019-01-13T08:48:54.774Z,99151.55
2019-01-13T08:51:25.718Z,99158.98
2019-01-13T08:53:56.478Z,99163.68
2019-01-13T08:56:28.852Z,99159.30
2019-01-13T08:59:01.073Z,99163.19
2019-01-13T09:01:32.842Z,99143.94
2019-01-13T09:04:04.597Z,99147.80
2019-01-13T09:06:36.314Z,99119.16
2019-01-13T09:09:10.720Z,99119.16
2019-01-13T09:11:41.489Z,99125.53
2019-01-13T09:14:13.268Z,99115.48
2019-01-13T09:16:45.301Z,99113.07
2019-01-13T09:19:16.818Z,99108.50
2019-01-13T09:21:48.585Z,99103.36
2019-01-13T09:24:20.310Z,99073.56
2019-01-13T09:26:51.882Z,99073.56
2019-01-13T09:29:23.585Z,99091.77
2019-01-13T09:31:55.360Z,99070.14
2019-01-13T09:34:27.036Z,99070.14
2019-01-13T09:36:58.806Z,99077.02
2019-01-13T09:39:30.385Z,99069.16
2019-01-13T09:42:02.066Z,99061.64
2019-01-13T09:44:33.757Z,99054.64
2019-01-13T09:47:05.364Z,99053.28
2019-01-13T09:49:36.845Z,99049.63
2019-01-13T09:52:08.787Z,99046.28
2019-01-13T09:54:39.490Z,99036.34
2019-01-13T09:57:11.308Z,99022.34
2019-01-13T09:59:42.882Z,99018.27
2019-01-13T10:02:14.795Z,99006.77
2019-01-13T10:04:46.389Z,99003.72
2019-01-13T10:07:18.060Z,98987.75
2019-01-13T10:09:49.752Z,98987.41
2019-01-13T10:12:20.487Z,98977.91
2019-01-13T10:14:52.312Z,98963.38
2019-01-13T10:20:03.062Z,98944.03
2019-01-13T10:22:35.005Z,98939.75
2019-01-13T10:25:06.781Z,98929.41
2019-01-13T10:27:37.457Z,98921.78
2019-01-13T10:30:17.763Z,98918.30
2019-01-13T10:32:54.585Z,98913.30
2019-01-13T10:35:21.777Z,98906.84
2019-01-13T10:37:52.462Z,98896.02
2019-01-13T10:40:27.773Z,98893.63
2019-01-13T10:42:58.487Z,98882.77
2019-01-13T10:45:30.643Z,98874.50
2019-01-13T10:48:02.397Z,98865.28
2019-01-13T10:50:34.805Z,98865.28
2019-01-13T10:53:10.703Z,98858.15
2019-01-13T10:55:41.877Z,98850.73
2019-01-13T10:58:13.711Z,98839.67
2019-01-13T11:00:44.495Z,98833.75
2019-01-13T11:03:16.309Z,98820.89
2019-01-13T11:05:47.824Z,98812.05
2019-01-13T11:08:19.607Z,98815.41
2019-01-13T11:10:51.308Z,98791.16
2019-01-13T11:13:22.855Z,98791.16
2019-01-13T11:15:54.422Z,98782.89
2019-01-13T11:18:26.023Z,98776.58
2019-01-13T11:20:58.305Z,98767.05
2019-01-13T11:23:29.817Z,98767.72
2019-01-13T11:26:01.580Z,98750.47
2019-01-13T11:28:33.740Z,98716.52
2019-01-13T11:31:04.470Z,98716.52
2019-01-13T11:33:36.294Z,98717.61
2019-01-13T11:36:07.812Z,98719.14
2019-01-13T11:38:39.737Z,98699.91
2019-01-13T11:41:10.593Z,98694.59
2019-01-13T11:43:42.254Z,98682.53
2019-01-13T11:46:13.460Z,98670.09
2019-01-13T11:48:45.328Z,98664.48
2019-01-13T11:51:16.899Z,98674.44
2019-01-13T11:53:48.973Z,98660.77
2019-01-13T11:56:20.720Z,98653.14
2019-01-13T11:58:51.433Z,98642.27
2019-01-13T12:01:23.054Z,98639.09
2019-01-13T12:03:54.737Z,98630.95
2019-01-13T12:06:26.738Z,98627.08
2019-01-13T12:08:58.353Z,98619.25
2019-01-13T12:11:30.120Z,98619.33
2019-01-13T12:14:01.747Z,98609.28
2019-01-13T12:16:33.545Z,98605.37
2019-01-13T12:19:05.069Z,98588.81
2019-01-13T12:21:36.386Z,98588.81
2019-01-13T12:24:08.037Z,98587.16
2019-01-13T12:26:40.301Z,98583.37
2019-01-13T12:29:11.884Z,98566.23
2019-01-13T12:31:43.758Z,98560.50
2019-01-13T12:34:16.713Z,98558.32
2019-01-13T12:36:48.678Z,98548.48
2019-01-13T12:39:20.377Z,98532.41
2019-01-13T12:41:52.276Z,98532.41
2019-01-13T12:44:24.062Z,98519.86
2019-01-13T12:46:55.845Z,98519.48
2019-01-13T12:49:28.292Z,98514.27
2019-01-13T12:52:00.832Z,98501.66
2019-01-13T12:54:33.306Z,98498.94
2019-01-13T12:57:05.063Z,98494.20
2019-01-13T12:59:36.758Z,98493.05
2019-01-13T13:02:07.509Z,98480.61
2019-01-13T13:04:39.256Z,98469.06
2019-01-13T13:07:11.395Z,98462.67
2019-01-13T13:09:43.289Z,98451.46
2019-01-13T13:12:14.843Z,98443.28
2019-01-13T13:14:46.770Z,98436.02
2019-01-13T13:17:20.643Z,98439.55
2019-01-13T13:19:52.569Z,98422.97
2019-01-13T13:22:24.290Z,98426.75
2019-01-13T13:24:56.052Z,98426.75
2019-01-13T13:27:27.760Z,98425.64
2019-01-13T13:29:58.486Z,98420.95
2019-01-13T13:32:30.262Z,98406.13
2019-01-13T13:35:01.910Z,98392.87
2019-01-13T13:37:33.677Z,98384.91
2019-01-13T13:40:06.409Z,98368.50
2019-01-13T13:42:38.021Z,98368.50
2019-01-13T13:45:09.771Z,98373.08
2019-01-13T13:47:40.508Z,98375.17
2019-01-13T13:50:16.704Z,98362.80
2019-01-13T13:52:47.466Z,98363.56
2019-01-13T13:55:19.302Z,98362.41
2019-01-13T13:57:51.021Z,98357.72
2019-01-13T14:00:34.773Z,98352.16
2019-01-13T14:03:06.745Z,98352.37
2019-01-13T14:05:37.474Z,98350.30
2019-01-13T14:08:09.774Z,98337.16
2019-01-13T14:10:42.876Z,98340.22
2019-01-13T14:13:14.416Z,98333.63
2019-01-13T14:15:46.302Z,98330.67
2019-01-13T14:18:17.978Z,98322.88
2019-01-13T14:20:49.743Z,98327.35
2019-01-13T14:23:21.374Z,98323.05
2019-01-13T14:25:53.453Z,98319.16
2019-01-13T14:28:24.987Z,98313.45
2019-01-13T14:30:56.771Z,98315.30
2019-01-13T14:33:28.798Z,98307.61
2019-01-13T14:36:00.653Z,98303.55
2019-01-13T14:38:31.917Z,98301.78
2019-01-13T14:41:03.278Z,98295.51
2019-01-13T14:43:34.797Z,98302.19
2019-01-13T14:46:06.457Z,98306.11
2019-01-13T14:48:38.301Z,98304.14
2019-01-13T14:51:09.850Z,98309.94
2019-01-13T14:53:41.365Z,98311.65
2019-01-13T14:56:13.698Z,98306.36
2019-01-13T14:58:44.631Z,98310.44
2019-01-13T15:01:16.379Z,98301.86
2019-01-13T15:03:48.062Z,98301.86
2019-01-13T15:06:19.755Z,98304.97
2019-01-13T15:08:50.483Z,98301.08
2019-01-13T15:11:23.165Z,98290.35
2019-01-13T15:13:55.369Z,98296.05
2019-01-13T15:16:27.074Z,98270.07
2019-01-13T15:19:00.199Z,98268.11
2019-01-13T15:23:06.373Z,98244.95
2019-01-13T15:25:38.259Z,98244.95
2019-01-13T15:28:10.058Z,98247.45
2019-01-13T15:30:42.305Z,98254.80
2019-01-13T15:33:13.910Z,98244.73
2019-01-13T15:35:47.124Z,98242.55
2019-01-13T15:38:21.464Z,98236.23
2019-01-13T15:40:53.300Z,98230.95
2019-01-13T15:43:26.552Z,98230.95
2019-01-13T15:45:59.406Z,98224.68
2019-01-13T15:48:32.647Z,98224.68
2019-01-13T15:51:04.363Z,98226.87
2019-01-13T15:53:38.424Z,98224.43
2019-01-13T15:56:10.707Z,98209.47
2019-01-13T15:58:41.469Z,98206.46
2019-01-13T16:01:13.305Z,98198.24
2019-01-13T16:03:46.383Z,98201.72
2019-01-13T16:06:18.778Z,98196.28
2019-01-13T16:08:50.794Z,98194.38
2019-01-13T16:11:22.850Z,98208.05
2019-01-13T16:13:54.593Z,98207.86
2019-01-13T16:16:26.310Z,98191.38
2019-01-13T16:18:57.896Z,98191.38
2019-01-13T16:21:29.760Z,98177.94
2019-01-13T16:24:00.479Z,98169.27
2019-01-13T16:26:32.777Z,98169.50
2019-01-13T16:29:04.410Z,98167.59
2019-01-13T16:31:36.024Z,98159.64
2019-01-13T16:34:07.747Z,98145.98
2019-01-13T16:36:38.492Z,98140.54
2019-01-13T16:39:11.297Z,98130.96
2019-01-13T16:41:42.808Z,98121.78
2019-01-13T16:44:14.489Z,98118.95
2019-01-13T16:46:46.397Z,98114.87
2019-01-13T16:49:18.037Z,98112.14
2019-01-13T16:51:49.745Z,98114.33
2019-01-13T16:54:20.474Z,98104.53
2019-01-13T16:56:52.667Z,98094.73
2019-01-13T16:59:24.743Z,98082.38
2019-01-13T17:01:55.789Z,98062.82
2019-01-13T17:04:28.933Z,98073.63
2019-01-13T17:07:00.787Z,98061.75
2019-01-13T17:09:31.514Z,98063.38
2019-01-13T17:12:03.730Z,98065.52
2019-01-13T17:14:34.449Z,98065.52
2019-01-13T17:17:06.361Z,98051.22
2019-01-13T17:19:38.032Z,98046.05
2019-01-13T17:22:09.777Z,98043.31
2019-01-13T17:24:40.477Z,98040.77
2019-01-13T17:27:12.307Z,98026.88
2019-01-13T17:29:44.318Z,98026.08
2019-01-13T17:32:16.044Z,98015.55
2019-01-13T17:34:47.752Z,98008.97
2019-01-13T17:37:19.589Z,98003.15
2019-01-13T17:39:51.321Z,97978.66
2019-01-13T17:42:22.873Z,97978.66
2019-01-13T17:44:54.426Z,97993.31
2019-01-13T17:47:26.017Z,97982.33
2019-01-13T17:49:57.759Z,97984.00
2019-01-13T17:52:29.118Z,97998.48
2019-01-13T17:55:00.771Z,97991.84
2019-01-13T17:57:32.385Z,97986.58
2019-01-13T18:00:04.015Z,97984.77
2019-01-13T18:02:35.806Z,97975.38
2019-01-13T18:05:07.762Z,97967.88
2019-01-13T18:07:38.459Z,97967.06
2019-01-13T18:10:10.379Z,97955.09
2019-01-13T18:12:42.744Z,97961.19
2019-01-13T18:15:13.603Z,97956.98
2019-01-13T18:17:45.411Z,97956.03
2019-01-13T18:20:19.410Z,97956.03
2019-01-13T18:22:51.070Z,97966.14
2019-01-13T18:25:23.000Z,97966.68
2019-01-13T18:27:54.798Z,97965.94
2019-01-13T18:30:27.465Z,97954.52
2019-01-13T18:32:59.313Z,97963.61
2019-01-13T18:38:17.342Z,97956.09
2019-01-13T18:40:49.310Z,97942.89
2019-01-13T18:43:21.042Z,97954.36
2019-01-13T18:45:52.774Z,97949.47
2019-01-13T18:48:23.492Z,97954.58
2019-01-13T18:50:55.262Z,97955.03
2019-01-13T18:53:26.843Z,97952.26
2019-01-13T18:55:58.584Z,97961.50
2019-01-13T18:58:30.346Z,97972.04
2019-01-13T19:01:02.268Z,97972.04
2019-01-13T19:03:34.477Z,97965.24
2019-01-13T19:06:06.730Z,97989.18
2019-01-13T19:08:37.488Z,98005.39
2019-01-13T19:11:34.715Z,98029.27
2019-01-13T19:14:46.454Z,98038.50
2019-01-13T19:32:14.782Z,98040.00
2019-01-13T19:34:45.594Z,98040.47
2019-01-13T19:37:18.869Z,98049.52
2019-01-13T19:39:50.782Z,98049.52
2019-01-13T19:42:21.468Z,98044.38
2019-01-13T19:44:53.288Z,98047.33
2019-01-13T19:47:25.302Z,98050.05
2019-01-13T19:49:56.814Z,98050.61
2019-01-13T19:52:28.632Z,98049.73
2019-01-13T19:55:00.363Z,98043.14
2019-01-13T19:57:32.310Z,98043.14
2019-01-13T20:00:03.871Z,98052.55
2019-01-13T20:02:35.751Z,98055.55
2019-01-13T20:05:11.819Z,98063.03
2019-01-13T20:07:40.587Z,98065.15
2019-01-13T20:10:12.745Z,98056.43
2019-01-13T20:12:43.490Z,98056.43
2019-01-13T20:15:15.827Z,98069.02
2019-01-13T20:17:47.431Z,98072.37
2019-01-13T20:20:20.319Z,98077.55
2019-01-13T20:22:52.014Z,98077.38
2019-01-13T20:25:23.743Z,98070.75
2019-01-13T20:27:54.472Z,98075.73
2019-01-13T20:30:31.437Z,98064.72
2019-01-13T20:33:04.646Z,98066.97
2019-01-13T20:35:36.338Z,98059.87
2019-01-13T20:38:08.319Z,98059.87
2019-01-13T20:40:39.841Z,98058.32
2019-01-13T20:43:11.425Z,98065.91
2019-01-13T20:45:45.303Z,98058.80
2019-01-13T20:48:17.807Z,98071.63
2019-01-13T20:50:49.809Z,98059.94
2019-01-13T20:53:21.488Z,98077.06
2019-01-13T20:55:53.452Z,98072.70
2019-01-13T20:58:25.062Z,98085.50
2019-01-13T21:00:56.741Z,98074.53
2019-01-13T21:03:27.480Z,98072.28
2019-01-13T21:05:59.296Z,98077.88
2019-01-13T21:08:30.889Z,98068.50
2019-01-13T21:11:02.733Z,98078.52
2019-01-13T21:13:33.447Z,98094.19
2019-01-13T21:16:05.368Z,98076.81
2019-01-13T21:18:37.363Z,98081.70
2019-01-13T21:21:09.058Z,98096.97
2019-01-13T21:23:40.760Z,98097.19
2019-01-13T21:26:11.505Z,98109.13
2019-01-13T21:28:43.476Z,98116.08
2019-01-13T21:31:15.058Z,98100.53
2019-01-13T21:33:46.755Z,98101.61
2019-01-13T21:36:18.401Z,98102.08
2019-01-13T21:38:50.156Z,98101.00
2019-01-13T21:41:21.737Z,98099.30
2019-01-13T21:43:54.271Z,98094.08
2019-01-13T21:46:26.542Z,98096.05
2019-01-13T21:48:58.345Z,98100.59
2019-01-13T21:51:30.058Z,98093.82
2019-01-13T21:54:01.802Z,98094.42
2019-01-13T21:56:33.450Z,98084.29
2019-01-13T21:59:05.277Z,98109.09
2019-01-13T22:01:36.818Z,98095.03
2019-01-13T22:04:08.796Z,98089.25
2019-01-13T22:06:40.785Z,98100.66
2019-01-13T22:09:14.260Z,98104.00
2019-01-13T22:11:46.301Z,98108.29
2019-01-13T22:14:17.882Z,98100.53
2019-01-13T22:16:49.414Z,98093.13
2019-01-13T22:19:21.395Z,98096.06
2019-01-13T22:21:53.059Z,98106.43
2019-01-13T22:24:24.793Z,98095.91
2019-01-13T22:26:56.371Z,98098.70
2019-01-13T22:29:28.510Z,98101.34
2019-01-13T22:32:00.365Z,98096.05
2019-01-13T22:34:32.256Z,98096.93
2019-01-13T22:37:04.295Z,98102.97
2019-01-13T22:39:35.820Z,98095.22
2019-01-13T22:42:07.577Z,98099.58
2019-01-13T22:44:39.296Z,98092.03
2019-01-13T22:47:10.836Z,98078.25
2019-01-13T22:49:42.630Z,98085.30
2019-01-13T22:52:14.325Z,98083.34
2019-01-13T22:54:45.993Z,98083.34
2019-01-13T22:57:17.729Z,98099.43
2019-01-13T22:59:48.642Z,98095.57
2019-01-13T23:02:20.367Z,98104.73
2019-01-13T23:04:52.475Z,98104.73
2019-01-13T23:07:24.025Z,98110.23
2019-01-13T23:09:55.789Z,98122.73
2019-01-13T23:12:27.369Z,98129.06
2019-01-13T23:14:59.304Z,98143.56
2019-01-13T23:17:31.296Z,98129.98
2019-01-13T23:20:02.841Z,98118.92
2019-01-13T23:22:34.769Z,98132.72
2019-01-13T23:25:05.543Z,98127.35
2019-01-13T23:27:37.302Z,98127.75
2019-01-13T23:30:09.232Z,98117.86
2019-01-13T23:32:40.778Z,98128.98
2019-01-13T23:35:12.402Z,98132.16
2019-01-13T23:37:44.263Z,98126.27
2019-01-13T23:40:15.792Z,98128.58
2019-01-13T23:42:47.622Z,98150.53
2019-01-13T23:45:19.360Z,98138.23
2019-01-13T23:47:51.059Z,98138.23
2019-01-13T23:50:22.791Z,98132.88
2019-01-13T23:52:54.766Z,98136.52
2019-01-13T23:55:25.490Z,98141.16
2019-01-13T23:57:57.262Z,98144.28
